sensor_id;sensor_type;location;lat;lon;timestamp;pressure;altitude;pressure_sealevel;temperature;humidity
68986;BME280;56035;37.534;-122.308;2023-05-22T00:00:03;101155.13;;;18.79;100.00
68986;BME280;56035;37.534;-122.308;2023-05-22T00:02:32;101149.28;;;18.75;100.00
68986;BME280;56035;37.534;-122.308;2023-05-22T00:04:58;101156.81;;;18.69;100.00
68986;BME280;56035;37.534;-122.308;2023-05-22T00:07:25;101162.13;;;18.66;100.00
68986;BME280;56035;37.534;-122.308;2023-05-22T00:09:51;101167.69;;;18.66;100.00
68986;BME280;56035;37.534;-122.308;2023-05-22T00:12:18;101162.44;;;18.64;100.00
68986;BME280;56035;37.534;-122.308;2023-05-22T00:14:46;101168.06;;;18.54;100.00
68986;BME280;56035;37.534;-122.308;2023-05-22T00:17:12;101161.38;;;18.45;100.00
68986;BME280;56035;37.534;-122.308;2023-05-22T00:19:39;101161.66;;;18.43;100.00
68986;BME280;56035;37.534;-122.308;2023-05-22T00:22:05;101155.25;;;18.43;100.00
68986;BME280;56035;37.534;-122.308;2023-05-22T00:24:30;101166.13;;;18.44;100.00
68986;BME280;56035;37.534;-122.308;2023-05-22T00:26:56;101164.22;;;18.35;100.00
68986;BME280;56035;37.534;-122.308;2023-05-22T00:29:22;101167.34;;;18.13;100.00
68986;BME280;56035;37.534;-122.308;2023-05-22T00:31:48;101173.53;;;17.99;100.00
68986;BME280;56035;37.534;-122.308;2023-05-22T00:34:14;101173.53;;;17.74;100.00
68986;BME280;56035;37.534;-122.308;2023-05-22T00:36:39;101174.09;;;17.61;100.00
68986;BME280;56035;37.534;-122.308;2023-05-22T00:39:05;101170.19;;;17.46;100.00
68986;BME280;56035;37.534;-122.308;2023-05-22T00:41:31;101184.38;;;17.35;100.00
68986;BME280;56035;37.534;-122.308;2023-05-22T00:44:00;101172.94;;;17.16;100.00
68986;BME280;56035;37.534;-122.308;2023-05-22T00:46:27;101179.09;;;17.18;100.00
68986;BME280;56035;37.534;-122.308;2023-05-22T00:48:53;101178.81;;;17.14;100.00
68986;BME280;56035;37.534;-122.308;2023-05-22T00:51:21;101172.66;;;17.07;100.00
68986;BME280;56035;37.534;-122.308;2023-05-22T00:53:48;101176.25;;;16.92;100.00
68986;BME280;56035;37.534;-122.308;2023-05-22T00:56:14;101178.97;;;16.77;100.00
68986;BME280;56035;37.534;-122.308;2023-05-22T00:58:40;101177.78;;;16.62;100.00
68986;BME280;56035;37.534;-122.308;2023-05-22T01:01:06;101183.84;;;16.54;100.00
68986;BME280;56035;37.534;-122.308;2023-05-22T01:03:34;101188.28;;;16.45;100.00
68986;BME280;56035;37.534;-122.308;2023-05-22T01:06:02;101185.44;;;16.30;100.00
68986;BME280;56035;37.534;-122.308;2023-05-22T01:08:27;101195.69;;;16.24;100.00
68986;BME280;56035;37.534;-122.308;2023-05-22T01:10:55;101193.13;;;16.12;100.00
68986;BME280;56035;37.534;-122.308;2023-05-22T01:21:18;101195.13;;;15.80;100.00
68986;BME280;56035;37.534;-122.308;2023-05-22T01:29:10;101190.13;;;15.50;100.00
68986;BME280;56035;37.534;-122.308;2023-05-22T01:31:39;101200.31;;;15.39;100.00
68986;BME280;56035;37.534;-122.308;2023-05-22T01:34:06;101195.28;;;15.36;100.00
68986;BME280;56035;37.534;-122.308;2023-05-22T01:36:34;101198.03;;;15.31;100.00
68986;BME280;56035;37.534;-122.308;2023-05-22T01:39:01;101189.59;;;15.20;100.00
68986;BME280;56035;37.534;-122.308;2023-05-22T01:41:31;101190.56;;;15.09;100.00
68986;BME280;56035;37.534;-122.308;2023-05-22T01:43:57;101184.41;;;15.02;100.00
68986;BME280;56035;37.534;-122.308;2023-05-22T01:46:26;101188.22;;;14.96;100.00
68986;BME280;56035;37.534;-122.308;2023-05-22T01:48:53;101194.03;;;14.94;100.00
68986;BME280;56035;37.534;-122.308;2023-05-22T01:51:20;101184.03;;;14.93;100.00
68986;BME280;56035;37.534;-122.308;2023-05-22T01:53:56;101185.66;;;14.89;100.00
68986;BME280;56035;37.534;-122.308;2023-05-22T01:56:36;101192.56;;;14.87;100.00
68986;BME280;56035;37.534;-122.308;2023-05-22T01:59:15;101188.84;;;14.76;100.00
68986;BME280;56035;37.534;-122.308;2023-05-22T02:01:43;101190.13;;;14.68;100.00
68986;BME280;56035;37.534;-122.308;2023-05-22T02:04:13;101195.03;;;14.61;100.00
68986;BME280;56035;37.534;-122.308;2023-05-22T02:06:40;101197.06;;;14.49;100.00
68986;BME280;56035;37.534;-122.308;2023-05-22T02:09:08;101195.25;;;14.38;100.00
68986;BME280;56035;37.534;-122.308;2023-05-22T02:11:36;101195.13;;;14.27;100.00
68986;BME280;56035;37.534;-122.308;2023-05-22T02:14:02;101185.06;;;14.21;100.00
68986;BME280;56035;37.534;-122.308;2023-05-22T02:16:28;101184.59;;;14.08;100.00
68986;BME280;56035;37.534;-122.308;2023-05-22T02:18:58;101181.69;;;13.97;100.00
68986;BME280;56035;37.534;-122.308;2023-05-22T02:21:34;101182.28;;;13.82;100.00
68986;BME280;56035;37.534;-122.308;2023-05-22T02:24:01;101187.16;;;13.75;100.00
68986;BME280;56035;37.534;-122.308;2023-05-22T02:26:27;101190.09;;;13.69;100.00
68986;BME280;56035;37.534;-122.308;2023-05-22T02:28:53;101189.16;;;13.63;100.00
68986;BME280;56035;37.534;-122.308;2023-05-22T02:31:19;101181.63;;;13.58;100.00
68986;BME280;56035;37.534;-122.308;2023-05-22T02:33:45;101192.59;;;13.53;100.00
68986;BME280;56035;37.534;-122.308;2023-05-22T02:36:10;101185.66;;;13.51;100.00
68986;BME280;56035;37.534;-122.308;2023-05-22T02:38:38;101175.25;;;13.41;100.00
68986;BME280;56035;37.534;-122.308;2023-05-22T02:41:04;101185.63;;;13.34;100.00
68986;BME280;56035;37.534;-122.308;2023-05-22T02:43:30;101197.47;;;13.29;100.00
68986;BME280;56035;37.534;-122.308;2023-05-22T02:45:56;101187.34;;;13.23;100.00
68986;BME280;56035;37.534;-122.308;2023-05-22T02:48:22;101193.66;;;13.19;100.00
68986;BME280;56035;37.534;-122.308;2023-05-22T02:50:48;101197.41;;;13.12;100.00
68986;BME280;56035;37.534;-122.308;2023-05-22T02:53:14;101186.72;;;13.04;100.00
68986;BME280;56035;37.534;-122.308;2023-05-22T02:55:40;101200.47;;;12.99;100.00
68986;BME280;56035;37.534;-122.308;2023-05-22T02:58:06;101198.97;;;12.92;100.00
68986;BME280;56035;37.534;-122.308;2023-05-22T03:00:38;101197.75;;;12.87;100.00
68986;BME280;56035;37.534;-122.308;2023-05-22T03:03:04;101197.06;;;12.80;100.00
68986;BME280;56035;37.534;-122.308;2023-05-22T03:05:31;101187.47;;;12.71;100.00
68986;BME280;56035;37.534;-122.308;2023-05-22T03:07:58;101191.00;;;12.67;100.00
68986;BME280;56035;37.534;-122.308;2023-05-22T03:10:24;101186.94;;;12.57;100.00
68986;BME280;56035;37.534;-122.308;2023-05-22T03:12:50;101188.75;;;12.52;100.00
68986;BME280;56035;37.534;-122.308;2023-05-22T03:15:16;101195.75;;;12.43;100.00
68986;BME280;56035;37.534;-122.308;2023-05-22T03:17:42;101199.59;;;12.41;100.00
68986;BME280;56035;37.534;-122.308;2023-05-22T03:20:08;101196.72;;;12.36;100.00
68986;BME280;56035;37.534;-122.308;2023-05-22T03:22:34;101196.59;;;12.31;100.00
68986;BME280;56035;37.534;-122.308;2023-05-22T03:25:00;101204.19;;;12.24;100.00
68986;BME280;56035;37.534;-122.308;2023-05-22T03:27:26;101210.19;;;12.21;100.00
68986;BME280;56035;37.534;-122.308;2023-05-22T03:29:54;101206.72;;;12.14;100.00
68986;BME280;56035;37.534;-122.308;2023-05-22T03:32:20;101204.44;;;12.11;100.00
68986;BME280;56035;37.534;-122.308;2023-05-22T03:34:46;101203.25;;;12.07;100.00
68986;BME280;56035;37.534;-122.308;2023-05-22T03:37:12;101204.78;;;12.03;100.00
68986;BME280;56035;37.534;-122.308;2023-05-22T03:39:37;101194.13;;;11.94;100.00
68986;BME280;56035;37.534;-122.308;2023-05-22T03:42:04;101178.28;;;11.90;100.00
68986;BME280;56035;37.534;-122.308;2023-05-22T03:44:30;101190.88;;;11.86;100.00
68986;BME280;56035;37.534;-122.308;2023-05-22T03:46:56;101189.03;;;11.80;100.00
68986;BME280;56035;37.534;-122.308;2023-05-22T03:49:21;101192.75;;;11.73;100.00
68986;BME280;56035;37.534;-122.308;2023-05-22T03:51:47;101199.63;;;11.71;100.00
68986;BME280;56035;37.534;-122.308;2023-05-22T03:54:13;101197.09;;;11.69;100.00
68986;BME280;56035;37.534;-122.308;2023-05-22T03:56:39;101195.88;;;11.65;100.00
68986;BME280;56035;37.534;-122.308;2023-05-22T03:59:05;101191.94;;;11.61;100.00
68986;BME280;56035;37.534;-122.308;2023-05-22T04:01:30;101190.47;;;11.59;100.00
68986;BME280;56035;37.534;-122.308;2023-05-22T04:03:56;101196.47;;;11.56;100.00
68986;BME280;56035;37.534;-122.308;2023-05-22T04:06:22;101203.78;;;11.50;100.00
68986;BME280;56035;37.534;-122.308;2023-05-22T04:08:48;101205.59;;;11.44;100.00
68986;BME280;56035;37.534;-122.308;2023-05-22T04:11:14;101211.59;;;11.41;100.00
68986;BME280;56035;37.534;-122.308;2023-05-22T04:13:43;101205.66;;;11.38;100.00
68986;BME280;56035;37.534;-122.308;2023-05-22T04:16:09;101212.53;;;11.35;100.00
68986;BME280;56035;37.534;-122.308;2023-05-22T04:18:35;101224.03;;;11.32;100.00
68986;BME280;56035;37.534;-122.308;2023-05-22T04:21:00;101228.34;;;11.28;100.00
68986;BME280;56035;37.534;-122.308;2023-05-22T04:23:27;101229.66;;;11.25;100.00
68986;BME280;56035;37.534;-122.308;2023-05-22T04:25:52;101229.50;;;11.20;100.00
68986;BME280;56035;37.534;-122.308;2023-05-22T04:28:19;101230.78;;;11.18;100.00
68986;BME280;56035;37.534;-122.308;2023-05-22T04:30:48;101231.50;;;11.13;100.00
68986;BME280;56035;37.534;-122.308;2023-05-22T04:33:14;101229.84;;;11.12;100.00
68986;BME280;56035;37.534;-122.308;2023-05-22T04:35:40;101235.81;;;11.09;100.00
68986;BME280;56035;37.534;-122.308;2023-05-22T04:38:06;101234.38;;;11.07;100.00
68986;BME280;56035;37.534;-122.308;2023-05-22T04:40:32;101232.69;;;11.06;100.00
68986;BME280;56035;37.534;-122.308;2023-05-22T04:42:58;101226.56;;;11.04;100.00
68986;BME280;56035;37.534;-122.308;2023-05-22T04:45:26;101229.56;;;11.02;100.00
68986;BME280;56035;37.534;-122.308;2023-05-22T04:47:53;101233.00;;;10.97;100.00
68986;BME280;56035;37.534;-122.308;2023-05-22T04:50:19;101250.84;;;10.95;100.00
68986;BME280;56035;37.534;-122.308;2023-05-22T04:52:45;101248.09;;;10.95;100.00
68986;BME280;56035;37.534;-122.308;2023-05-22T04:55:11;101253.84;;;10.93;100.00
68986;BME280;56035;37.534;-122.308;2023-05-22T04:57:38;101261.50;;;10.91;100.00
68986;BME280;56035;37.534;-122.308;2023-05-22T05:00:04;101250.94;;;10.88;100.00
68986;BME280;56035;37.534;-122.308;2023-05-22T05:02:30;101251.41;;;10.85;100.00
68986;BME280;56035;37.534;-122.308;2023-05-22T05:04:56;101251.03;;;10.82;100.00
68986;BME280;56035;37.534;-122.308;2023-05-22T05:07:22;101257.38;;;10.82;100.00
68986;BME280;56035;37.534;-122.308;2023-05-22T05:09:49;101254.88;;;10.81;100.00
68986;BME280;56035;37.534;-122.308;2023-05-22T05:12:15;101251.50;;;10.78;100.00
68986;BME280;56035;37.534;-122.308;2023-05-22T05:14:41;101250.91;;;10.76;100.00
68986;BME280;56035;37.534;-122.308;2023-05-22T05:17:06;101251.94;;;10.75;100.00
68986;BME280;56035;37.534;-122.308;2023-05-22T05:19:32;101243.75;;;10.69;100.00
68986;BME280;56035;37.534;-122.308;2023-05-22T05:21:58;101239.34;;;10.68;100.00
68986;BME280;56035;37.534;-122.308;2023-05-22T05:24:24;101228.94;;;10.70;100.00
68986;BME280;56035;37.534;-122.308;2023-05-22T05:26:50;101229.63;;;10.65;100.00
68986;BME280;56035;37.534;-122.308;2023-05-22T05:29:16;101222.69;;;10.63;100.00
68986;BME280;56035;37.534;-122.308;2023-05-22T05:31:42;101225.63;;;10.61;100.00
68986;BME280;56035;37.534;-122.308;2023-05-22T05:34:08;101217.84;;;10.58;100.00
68986;BME280;56035;37.534;-122.308;2023-05-22T05:36:34;101219.97;;;10.56;100.00
68986;BME280;56035;37.534;-122.308;2023-05-22T05:39:00;101218.28;;;10.55;100.00
68986;BME280;56035;37.534;-122.308;2023-05-22T05:41:25;101217.47;;;10.54;100.00
68986;BME280;56035;37.534;-122.308;2023-05-22T05:43:51;101220.69;;;10.51;100.00
68986;BME280;56035;37.534;-122.308;2023-05-22T05:46:17;101213.25;;;10.52;100.00
68986;BME280;56035;37.534;-122.308;2023-05-22T05:48:44;101214.53;;;10.49;100.00
68986;BME280;56035;37.534;-122.308;2023-05-22T05:51:10;101216.31;;;10.44;100.00
68986;BME280;56035;37.534;-122.308;2023-05-22T05:53:36;101216.09;;;10.45;100.00
68986;BME280;56035;37.534;-122.308;2023-05-22T05:56:02;101212.13;;;10.41;100.00
68986;BME280;56035;37.534;-122.308;2023-05-22T05:58:28;101220.00;;;10.38;100.00
68986;BME280;56035;37.534;-122.308;2023-05-22T06:00:54;101214.31;;;10.32;100.00
68986;BME280;56035;37.534;-122.308;2023-05-22T06:03:20;101223.91;;;10.30;100.00
68986;BME280;56035;37.534;-122.308;2023-05-22T06:05:46;101234.50;;;10.26;100.00
68986;BME280;56035;37.534;-122.308;2023-05-22T06:08:12;101235.56;;;10.25;100.00
68986;BME280;56035;37.534;-122.308;2023-05-22T06:10:39;101231.34;;;10.23;100.00
68986;BME280;56035;37.534;-122.308;2023-05-22T06:13:05;101225.84;;;10.23;100.00
68986;BME280;56035;37.534;-122.308;2023-05-22T06:15:31;101229.66;;;10.22;100.00
68986;BME280;56035;37.534;-122.308;2023-05-22T06:17:57;101224.78;;;10.24;100.00
68986;BME280;56035;37.534;-122.308;2023-05-22T06:20:23;101232.19;;;10.23;100.00
68986;BME280;56035;37.534;-122.308;2023-05-22T06:22:52;101229.66;;;10.22;100.00
68986;BME280;56035;37.534;-122.308;2023-05-22T06:25:18;101227.16;;;10.20;100.00
68986;BME280;56035;37.534;-122.308;2023-05-22T06:27:44;101219.56;;;10.16;100.00
68986;BME280;56035;37.534;-122.308;2023-05-22T06:30:10;101220.41;;;10.16;100.00
68986;BME280;56035;37.534;-122.308;2023-05-22T06:32:36;101214.06;;;10.16;100.00
68986;BME280;56035;37.534;-122.308;2023-05-22T06:35:02;101207.97;;;10.14;100.00
68986;BME280;56035;37.534;-122.308;2023-05-22T06:37:28;101205.22;;;10.14;100.00
68986;BME280;56035;37.534;-122.308;2023-05-22T06:39:55;101211.16;;;10.11;100.00
68986;BME280;56035;37.534;-122.308;2023-05-22T06:42:21;101213.91;;;10.11;100.00
68986;BME280;56035;37.534;-122.308;2023-05-22T06:44:47;101211.63;;;10.07;100.00
68986;BME280;56035;37.534;-122.308;2023-05-22T06:47:12;101196.16;;;10.06;100.00
68986;BME280;56035;37.534;-122.308;2023-05-22T06:49:38;101195.56;;;10.04;100.00
68986;BME280;56035;37.534;-122.308;2023-05-22T06:52:04;101189.22;;;10.04;100.00
68986;BME280;56035;37.534;-122.308;2023-05-22T06:54:30;101192.19;;;10.02;100.00
68986;BME280;56035;37.534;-122.308;2023-05-22T06:56:56;101198.91;;;10.06;100.00
68986;BME280;56035;37.534;-122.308;2023-05-22T06:59:22;101191.09;;;10.03;100.00
68986;BME280;56035;37.534;-122.308;2023-05-22T07:01:47;101185.00;;;10.01;100.00
68986;BME280;56035;37.534;-122.308;2023-05-22T07:04:13;101187.81;;;9.95;100.00
68986;BME280;56035;37.534;-122.308;2023-05-22T07:06:39;101187.59;;;9.96;100.00
68986;BME280;56035;37.534;-122.308;2023-05-22T07:09:06;101188.88;;;9.94;100.00
68986;BME280;56035;37.534;-122.308;2023-05-22T07:11:32;101189.28;;;9.97;100.00
68986;BME280;56035;37.534;-122.308;2023-05-22T07:13:59;101192.19;;;10.02;100.00
68986;BME280;56035;37.534;-122.308;2023-05-22T07:16:25;101194.72;;;10.04;100.00
68986;BME280;56035;37.534;-122.308;2023-05-22T07:18:51;101197.84;;;10.07;100.00
68986;BME280;56035;37.534;-122.308;2023-05-22T07:21:17;101202.50;;;10.07;100.00
68986;BME280;56035;37.534;-122.308;2023-05-22T07:23:43;101195.09;;;10.07;100.00
68986;BME280;56035;37.534;-122.308;2023-05-22T07:26:08;101193.78;;;10.10;100.00
68986;BME280;56035;37.534;-122.308;2023-05-22T07:28:34;101201.19;;;10.09;100.00
68986;BME280;56035;37.534;-122.308;2023-05-22T07:31:00;101199.53;;;10.08;100.00
68986;BME280;56035;37.534;-122.308;2023-05-22T07:33:26;101197.00;;;10.07;100.00
68986;BME280;56035;37.534;-122.308;2023-05-22T07:35:52;101189.59;;;10.07;100.00
68986;BME280;56035;37.534;-122.308;2023-05-22T07:38:18;101191.72;;;10.05;100.00
68986;BME280;56035;37.534;-122.308;2023-05-22T07:40:43;101190.06;;;10.04;100.00
68986;BME280;56035;37.534;-122.308;2023-05-22T07:43:09;101187.50;;;10.03;100.00
68986;BME280;56035;37.534;-122.308;2023-05-22T07:45:35;101190.50;;;10.01;100.00
68986;BME280;56035;37.534;-122.308;2023-05-22T07:48:02;101195.38;;;9.99;100.00
68986;BME280;56035;37.534;-122.308;2023-05-22T07:50:28;101190.13;;;9.98;100.00
68986;BME280;56035;37.534;-122.308;2023-05-22T07:52:57;101184.25;;;9.94;100.00
68986;BME280;56035;37.534;-122.308;2023-05-22T07:55:23;101181.69;;;9.93;100.00
68986;BME280;56035;37.534;-122.308;2023-05-22T07:57:49;101179.19;;;9.91;100.00
68986;BME280;56035;37.534;-122.308;2023-05-22T08:00:15;101180.84;;;9.92;100.00
68986;BME280;56035;37.534;-122.308;2023-05-22T08:02:41;101178.56;;;9.89;100.00
68986;BME280;56035;37.534;-122.308;2023-05-22T08:05:07;101176.88;;;9.88;100.00
68986;BME280;56035;37.534;-122.308;2023-05-22T08:07:33;101177.34;;;9.85;100.00
68986;BME280;56035;37.534;-122.308;2023-05-22T08:10:01;101190.03;;;9.86;100.00
68986;BME280;56035;37.534;-122.308;2023-05-22T08:12:27;101183.50;;;9.80;100.00
68986;BME280;56035;37.534;-122.308;2023-05-22T08:14:53;101190.91;;;9.80;100.00
68986;BME280;56035;37.534;-122.308;2023-05-22T08:17:18;101185.88;;;9.77;100.00
68986;BME280;56035;37.534;-122.308;2023-05-22T08:19:44;101186.31;;;9.74;100.00
68986;BME280;56035;37.534;-122.308;2023-05-22T08:22:10;101188.25;;;9.73;100.00
68986;BME280;56035;37.534;-122.308;2023-05-22T08:24:36;101187.22;;;9.68;100.00
68986;BME280;56035;37.534;-122.308;2023-05-22T08:27:03;101188.28;;;9.67;100.00
68986;BME280;56035;37.534;-122.308;2023-05-22T08:29:29;101192.97;;;9.66;100.00
68986;BME280;56035;37.534;-122.308;2023-05-22T08:31:54;101190.44;;;9.65;100.00
68986;BME280;56035;37.534;-122.308;2023-05-22T08:34:22;101186.25;;;9.62;100.00
68986;BME280;56035;37.534;-122.308;2023-05-22T08:36:48;101183.69;;;9.60;100.00
68986;BME280;56035;37.534;-122.308;2023-05-22T08:39:14;101171.84;;;9.60;100.00
68986;BME280;56035;37.534;-122.308;2023-05-22T08:41:40;101175.69;;;9.59;100.00
68986;BME280;56035;37.534;-122.308;2023-05-22T08:44:08;101178.25;;;9.54;100.00
68986;BME280;56035;37.534;-122.308;2023-05-22T08:46:38;101180.63;;;9.50;100.00
68986;BME280;56035;37.534;-122.308;2023-05-22T08:49:07;101177.03;;;9.50;100.00
68986;BME280;56035;37.534;-122.308;2023-05-22T08:51:33;101170.69;;;9.49;100.00
68986;BME280;56035;37.534;-122.308;2023-05-22T08:54:03;101187.19;;;9.49;100.00
68986;BME280;56035;37.534;-122.308;2023-05-22T08:56:30;101179.53;;;9.51;100.00
68986;BME280;56035;37.534;-122.308;2023-05-22T08:58:56;101189.31;;;9.47;100.00
68986;BME280;56035;37.534;-122.308;2023-05-22T09:01:22;101182.34;;;9.45;100.00
68986;BME280;56035;37.534;-122.308;2023-05-22T09:03:49;101181.97;;;9.41;100.00
68986;BME280;56035;37.534;-122.308;2023-05-22T09:06:16;101184.25;;;9.44;100.00
68986;BME280;56035;37.534;-122.308;2023-05-22T09:08:41;101186.41;;;9.42;100.00
68986;BME280;56035;37.534;-122.308;2023-05-22T09:11:08;101187.47;;;9.41;100.00
68986;BME280;56035;37.534;-122.308;2023-05-22T09:13:37;101187.69;;;9.40;100.00
68986;BME280;56035;37.534;-122.308;2023-05-22T09:16:07;101188.53;;;9.40;100.00
68986;BME280;56035;37.534;-122.308;2023-05-22T09:18:34;101193.00;;;9.34;100.00
68986;BME280;56035;37.534;-122.308;2023-05-22T09:21:01;101183.94;;;9.34;100.00
68986;BME280;56035;37.534;-122.308;2023-05-22T09:23:28;101187.31;;;9.36;100.00
68986;BME280;56035;37.534;-122.308;2023-05-22T09:25:54;101184.16;;;9.32;100.00
68986;BME280;56035;37.534;-122.308;2023-05-22T09:28:21;101181.03;;;9.29;100.00
68986;BME280;56035;37.534;-122.308;2023-05-22T09:30:47;101177.66;;;9.27;100.00
68986;BME280;56035;37.534;-122.308;2023-05-22T09:33:14;101180.38;;;9.27;100.00
68986;BME280;56035;37.534;-122.308;2023-05-22T09:35:41;101180.59;;;9.25;100.00
68986;BME280;56035;37.534;-122.308;2023-05-22T09:38:11;101177.44;;;9.22;100.00
68986;BME280;56035;37.534;-122.308;2023-05-22T09:40:37;101182.16;;;9.14;100.00
68986;BME280;56035;37.534;-122.308;2023-05-22T09:43:10;101180.69;;;9.12;100.00
68986;BME280;56035;37.534;-122.308;2023-05-22T09:45:37;101180.94;;;9.10;100.00
68986;BME280;56035;37.534;-122.308;2023-05-22T09:48:03;101182.22;;;9.08;100.00
68986;BME280;56035;37.534;-122.308;2023-05-22T09:50:30;101171.91;;;9.03;100.00
68986;BME280;56035;37.534;-122.308;2023-05-22T09:52:56;101171.25;;;9.01;100.00
68986;BME280;56035;37.534;-122.308;2023-05-22T09:55:24;101172.09;;;9.02;100.00
68986;BME280;56035;37.534;-122.308;2023-05-22T09:57:52;101168.91;;;9.05;100.00
68986;BME280;56035;37.534;-122.308;2023-05-22T10:00:19;101170.38;;;9.07;100.00
68986;BME280;56035;37.534;-122.308;2023-05-22T10:02:45;101167.41;;;9.09;100.00
68986;BME280;56035;37.534;-122.308;2023-05-22T10:05:12;101162.53;;;9.11;100.00
68986;BME280;56035;37.534;-122.308;2023-05-22T10:07:47;101158.09;;;9.10;100.00
68986;BME280;56035;37.534;-122.308;2023-05-22T10:10:17;101157.47;;;9.08;100.00
68986;BME280;56035;37.534;-122.308;2023-05-22T10:12:44;101150.75;;;9.04;100.00
68986;BME280;56035;37.534;-122.308;2023-05-22T10:15:12;101146.94;;;9.05;100.00
68986;BME280;56035;37.534;-122.308;2023-05-22T10:17:39;101148.63;;;9.06;100.00
68986;BME280;56035;37.534;-122.308;2023-05-22T10:20:07;101144.19;;;9.05;100.00
68986;BME280;56035;37.534;-122.308;2023-05-22T10:22:34;101147.16;;;9.03;100.00
68986;BME280;56035;37.534;-122.308;2023-05-22T10:25:01;101145.88;;;9.06;100.00
68986;BME280;56035;37.534;-122.308;2023-05-22T10:27:27;101141.44;;;9.05;100.00
68986;BME280;56035;37.534;-122.308;2023-05-22T10:30:09;101137.16;;;9.09;100.00
68986;BME280;56035;37.534;-122.308;2023-05-22T10:33:14;101135.50;;;9.08;100.00
68986;BME280;56035;37.534;-122.308;2023-05-22T10:36:15;101129.41;;;9.06;100.00
68986;BME280;56035;37.534;-122.308;2023-05-22T10:40:46;101122.97;;;9.12;100.00
68986;BME280;56035;37.534;-122.308;2023-05-22T10:43:13;101129.34;;;9.12;100.00
68986;BME280;56035;37.534;-122.308;2023-05-22T10:45:38;101125.34;;;9.08;100.00
68986;BME280;56035;37.534;-122.308;2023-05-22T10:48:06;101118.56;;;9.11;100.00
68986;BME280;56035;37.534;-122.308;2023-05-22T10:50:33;101123.41;;;9.09;100.00
68986;BME280;56035;37.534;-122.308;2023-05-22T10:56:09;101122.81;;;9.07;100.00
68986;BME280;56035;37.534;-122.308;2023-05-22T10:58:35;101128.31;;;9.07;100.00
68986;BME280;56035;37.534;-122.308;2023-05-22T11:01:08;101123.25;;;9.04;100.00
68986;BME280;56035;37.534;-122.308;2023-05-22T11:08:58;101112.31;;;8.97;100.00
68986;BME280;56035;37.534;-122.308;2023-05-22T11:11:24;101111.94;;;8.94;100.00
68986;BME280;56035;37.534;-122.308;2023-05-22T11:13:50;101110.66;;;8.96;100.00
68986;BME280;56035;37.534;-122.308;2023-05-22T11:16:16;101107.47;;;8.93;100.00
68986;BME280;56035;37.534;-122.308;2023-05-22T11:18:43;101100.53;;;8.90;100.00
68986;BME280;56035;37.534;-122.308;2023-05-22T11:21:09;101106.69;;;8.85;100.00
68986;BME280;56035;37.534;-122.308;2023-05-22T11:23:36;101099.53;;;8.84;100.00
68986;BME280;56035;37.534;-122.308;2023-05-22T11:26:15;101103.09;;;8.85;100.00
68986;BME280;56035;37.534;-122.308;2023-05-22T11:28:42;101104.63;;;8.81;100.00
68986;BME280;56035;37.534;-122.308;2023-05-22T11:31:08;101111.19;;;8.80;100.00
68986;BME280;56035;37.534;-122.308;2023-05-22T11:33:34;101117.53;;;8.80;100.00
68986;BME280;56035;37.534;-122.308;2023-05-22T11:36:00;101115.22;;;8.77;100.00
68986;BME280;56035;37.534;-122.308;2023-05-22T11:38:26;101111.63;;;8.77;100.00
68986;BME280;56035;37.534;-122.308;2023-05-22T11:40:52;101109.72;;;8.77;100.00
68986;BME280;56035;37.534;-122.308;2023-05-22T11:43:27;101118.41;;;8.74;100.00
68986;BME280;56035;37.534;-122.308;2023-05-22T11:45:54;101117.13;;;8.77;100.00
68986;BME280;56035;37.534;-122.308;2023-05-22T11:48:20;101108.03;;;8.76;100.00
68986;BME280;56035;37.534;-122.308;2023-05-22T11:50:48;101106.75;;;8.79;100.00
68986;BME280;56035;37.534;-122.308;2023-05-22T11:53:13;101116.50;;;8.75;100.00
68986;BME280;56035;37.534;-122.308;2023-05-22T11:55:41;101115.41;;;8.76;100.00
68986;BME280;56035;37.534;-122.308;2023-05-22T11:58:06;101121.16;;;8.74;100.00
68986;BME280;56035;37.534;-122.308;2023-05-22T12:00:32;101117.78;;;8.72;100.00
68986;BME280;56035;37.534;-122.308;2023-05-22T12:02:58;101112.91;;;8.74;100.00
68986;BME280;56035;37.534;-122.308;2023-05-22T12:05:24;101111.25;;;8.73;100.00
68986;BME280;56035;37.534;-122.308;2023-05-22T12:07:50;101120.47;;;8.79;100.00
68986;BME280;56035;37.534;-122.308;2023-05-22T12:10:15;101117.28;;;8.82;100.00
68986;BME280;56035;37.534;-122.308;2023-05-22T12:12:42;101128.88;;;8.90;100.00
68986;BME280;56035;37.534;-122.308;2023-05-22T12:15:08;101113.59;;;8.95;100.00
68986;BME280;56035;37.534;-122.308;2023-05-22T12:17:34;101114.78;;;9.05;100.00
68986;BME280;56035;37.534;-122.308;2023-05-22T12:20:02;101121.31;;;9.11;100.00
68986;BME280;56035;37.534;-122.308;2023-05-22T12:22:28;101124.22;;;9.16;100.00
68986;BME280;56035;37.534;-122.308;2023-05-22T12:24:54;101124.00;;;9.18;100.00
68986;BME280;56035;37.534;-122.308;2023-05-22T12:27:20;101125.28;;;9.15;100.00
68986;BME280;56035;37.534;-122.308;2023-05-22T12:29:46;101122.78;;;9.13;100.00
68986;BME280;56035;37.534;-122.308;2023-05-22T12:32:11;101118.78;;;9.09;100.00
68986;BME280;56035;37.534;-122.308;2023-05-22T12:34:45;101120.91;;;9.07;100.00
68986;BME280;56035;37.534;-122.308;2023-05-22T12:37:21;101123.72;;;9.01;100.00